Indianapolis, IN

7:58 AM EDT on April 21, 2015 (GMT -0400)
Eagle Creek | | Change Station
CLOSE
Current Station
Airport
Location: Eagle Creek,
Elevation: 820 ft
Nearby Weather Stations
Active Advisory: Wind Advisory

Elev 820 ft 39.83 °N, 86.30 °W | Updated 5 minutes ago

Clear
Clear
44 °F
Feels Like 39 °F
N
9
Wind Variable Wind from SW

Today
High -- | Low -- °F
--% Chance of Precip.
Yesterday
High -- | Low -- °F
Precip. -- in
6:58 AM 8:28 PM
Waxing Crescent, 10% visible
Pressure 29.75 in
Visibility 10.0 miles
Clouds Clear
Windchill 39 °F
Dew Point 32 °F
Humidity 63%
Rainfall 0.00 in
Snow Depth Not available.
UV 0 out of 12
Pollen 11.50 out of 12
Air Quality Not available.
Flu Activity Local Activity
METAR KEYE 211153Z AUTO 23008KT 10SM CLR 07/00 A2974 RMK AO2 SLP072 70002 T00670000 10072 20056 53003

More Conditions Fewer Conditions

Pressure 29.75 in
Visibility 10.0 miles
Clouds Clear
Windchill 39 °F
Dew Point 32 °F
Humidity 63%
Rainfall 0.00 in
Snow Depth Not available.
UV 0 out of 12
Pollen 11.50 out of 12
Air Quality Not available.
Flu Activity Local Activity
METAR KEYE 211153Z AUTO 23008KT 10SM CLR 07/00 A2974 RMK AO2 SLP072 70002 T00670000 10072 20056 53003

More Conditions Fewer Conditions

10-Day Weather Forecast

Almanac

Astronomy

Apr. 21, 2015 Rise Set
Actual Time
Civil Twilight
Nautical Twilight
Astronomical Twilight
Moon
Length of Visible Light
Length of Day
Tomorrow will be .
, % of the Moon is Illuminated

Today's Extremes

State Highs State Lows

Community

WunderPhotos

Upload Photos

1,815,349 photos uploaded!

WunderBlogs® & News

Nearby

Air Quality

  Air Quality AQ Index Pollutant
Not available.

Snow Depth

Station Depth Elevation

Earthquake Activity

City Distance Mag. Time & Date
Minimum magnitude displayed is 2.5.

Coastal Water Temperatures

Place Temperature

Stations

Nearby Weather Stations

Station Location Temp. Windchill Dew Point Humidity Wind Precip. Elev Updated Type
                   
Wind Advisory
Statement as of 3:29 AM EDT on April 21, 2015

... Wind Advisory remains in effect from 11 am this morning to
8 PM EDT this evening...

A Wind Advisory remains in effect from 11 am this morning to 8 PM
EDT this evening.

* Timing: 11 am until 8 PM.

* Winds: 40 to 50 mph westerly wind gusts

* impacts: unsecured objects will be blown about. Driving will
be difficult for high profile vehicles.

Precautionary/preparedness actions...

A Wind Advisory means that winds of 35 mph are expected. Winds
this strong can make driving difficult... especially for high
profile vehicles. Use extra caution.